createdAt,value
2023-02-16T00:00:38.364Z,35.53
2023-02-16T00:03:27.741Z,39.03
2023-02-16T00:06:16.310Z,40.13
2023-02-16T00:09:04.090Z,42.38
2023-02-16T00:12:10.577Z,41.38
2023-02-16T00:14:59.984Z,37.22
2023-02-16T00:17:51.995Z,38.63
2023-02-16T00:20:39.619Z,43.40
2023-02-16T00:23:40.729Z,39.78
2023-02-16T00:26:36.705Z,37.78
2023-02-16T00:29:29.289Z,44.67
2023-02-16T00:32:18.130Z,41.30
2023-02-16T00:35:16.614Z,40.67
2023-02-16T00:38:04.767Z,30.73
2023-02-16T00:40:52.703Z,41.58
2023-02-16T00:43:40.290Z,41.78
2023-02-16T00:46:28.015Z,41.13
2023-02-16T00:49:18.280Z,44.97
2023-02-16T00:52:33.954Z,45.95
2023-02-16T00:55:27.196Z,35.42
2023-02-16T00:58:24.660Z,41.20
2023-02-16T01:01:19.728Z,45.97
2023-02-16T01:04:13.595Z,42.55
2023-02-16T01:07:19.995Z,43.63
2023-02-16T01:10:26.721Z,44.45
2023-02-16T01:13:15.052Z,41.30
2023-02-16T01:16:03.402Z,49.33
2023-02-16T01:18:52.223Z,36.58
2023-02-16T01:21:40.213Z,36.50
2023-02-16T01:24:29.134Z,35.13
2023-02-16T01:27:16.694Z,36.05
2023-02-16T01:30:04.882Z,36.58
2023-02-16T01:32:55.637Z,41.58
2023-02-16T01:35:44.059Z,43.33
2023-02-16T01:38:32.301Z,36.10
2023-02-16T01:41:38.607Z,38.33
2023-02-16T01:44:31.512Z,34.22
2023-02-16T01:47:39.300Z,36.17
2023-02-16T01:50:45.793Z,36.20
2023-02-16T01:53:53.134Z,38.55
2023-02-16T01:56:57.241Z,38.53
2023-02-16T02:00:25.083Z,31.20
2023-02-16T02:06:42.895Z,34.70
2023-02-16T02:09:48.759Z,32.13
2023-02-16T02:12:49.304Z,32.10
2023-02-16T02:15:48.067Z,35.25
2023-02-16T02:18:36.128Z,31.98
2023-02-16T02:22:26.471Z,36.20
2023-02-16T02:26:03.787Z,31.27
2023-02-16T02:29:08.209Z,31.65
2023-02-16T02:32:18.489Z,36.20
2023-02-16T02:35:30.680Z,29.77
2023-02-16T02:38:36.834Z,31.65
2023-02-16T02:41:50.577Z,34.47
2023-02-16T02:44:58.241Z,30.65
2023-02-16T02:47:48.660Z,33.78
2023-02-16T02:51:09.673Z,33.88
2023-02-16T02:54:22.719Z,39.47
2023-02-16T02:57:48.762Z,33.08
2023-02-16T03:00:47.868Z,36.35
2023-02-16T03:03:46.844Z,34.03
2023-02-16T03:06:39.592Z,40.65
2023-02-16T03:09:33.184Z,35.70
2023-02-16T03:12:53.342Z,34.53
2023-02-16T03:15:45.591Z,42.58
2023-02-16T03:19:01.207Z,32.80
2023-02-16T03:26:01.687Z,39.13
2023-02-16T03:29:11.290Z,38.63
2023-02-16T03:32:01.537Z,40.53
2023-02-16T03:34:56.662Z,35.65
2023-02-16T03:37:52.508Z,36.83
2023-02-16T03:41:35.251Z,34.05
2023-02-16T03:44:31.032Z,33.20
2023-02-16T03:47:37.730Z,37.90
2023-02-16T03:50:30.556Z,34.38
2023-02-16T03:53:34.191Z,39.47
2023-02-16T03:56:24.407Z,32.20
2023-02-16T03:59:18.926Z,28.85
2023-02-16T04:02:13.259Z,34.40
2023-02-16T04:05:07.637Z,32.38
2023-02-16T04:08:08.027Z,34.75
2023-02-16T04:11:05.849Z,31.92
2023-02-16T04:14:04.702Z,33.03
2023-02-16T04:16:54.576Z,26.70
2023-02-16T04:20:14.643Z,28.25
2023-02-16T04:23:05.545Z,30.27
2023-02-16T04:26:05.122Z,29.83
2023-02-16T04:29:00.148Z,36.53
2023-02-16T04:32:03.737Z,36.97
2023-02-16T04:38:32.336Z,29.15
2023-02-16T04:41:26.482Z,32.58
2023-02-16T04:44:23.399Z,27.83
2023-02-16T04:47:11.636Z,28.92
2023-02-16T04:50:04.683Z,30.65
2023-02-16T04:52:52.639Z,31.15
2023-02-16T04:55:47.077Z,34.55
2023-02-16T04:58:34.580Z,34.33
2023-02-16T05:01:25.209Z,31.08
2023-02-16T05:04:13.044Z,29.40
2023-02-16T05:07:00.986Z,29.58
2023-02-16T05:09:48.366Z,29.38
2023-02-16T05:12:54.968Z,28.75
2023-02-16T05:15:42.405Z,38.13
2023-02-16T05:18:29.861Z,46.22
2023-02-16T05:21:32.859Z,40.10
2023-02-16T05:24:22.520Z,41.10
2023-02-16T05:27:15.118Z,40.80
2023-02-16T05:30:05.170Z,38.45
2023-02-16T05:32:52.842Z,43.25
2023-02-16T05:35:40.645Z,44.35
2023-02-16T05:38:28.477Z,41.85
2023-02-16T05:41:23.521Z,49.72
2023-02-16T05:44:12.567Z,45.10
2023-02-16T05:47:01.524Z,43.22
2023-02-16T05:49:49.237Z,44.30
2023-02-16T05:52:36.782Z,46.78
2023-02-16T05:55:24.468Z,48.78
2023-02-16T05:58:12.240Z,43.22
2023-02-16T06:01:00.146Z,43.67
2023-02-16T06:03:50.288Z,42.70
2023-02-16T06:06:38.548Z,44.20
2023-02-16T06:09:26.341Z,40.45
2023-02-16T06:12:16.933Z,41.72
2023-02-16T06:15:05.559Z,56.53
2023-02-16T06:17:53.452Z,41.22
2023-02-16T06:20:45.868Z,45.47
2023-02-16T06:23:33.504Z,40.63
2023-02-16T06:26:21.268Z,45.38
2023-02-16T06:29:09.545Z,38.83
2023-02-16T06:31:57.435Z,40.30
2023-02-16T06:34:45.089Z,36.92
2023-02-16T06:37:37.100Z,42.60
2023-02-16T06:40:25.802Z,40.40
2023-02-16T06:43:13.341Z,37.28
2023-02-16T06:46:01.007Z,34.83
2023-02-16T06:48:48.771Z,36.55
2023-02-16T06:51:36.327Z,44.05
2023-02-16T06:54:25.592Z,41.50
2023-02-16T06:57:13.601Z,43.17
2023-02-16T07:00:01.303Z,37.60
2023-02-16T07:02:48.837Z,39.33
2023-02-16T07:05:36.189Z,35.42
2023-02-16T07:08:23.832Z,30.25
2023-02-16T07:11:13.573Z,45.22
2023-02-16T07:14:01.033Z,46.83
2023-02-16T07:16:48.480Z,45.50
2023-02-16T07:19:36.206Z,45.10
2023-02-16T07:22:24.079Z,44.58
2023-02-16T07:25:14.117Z,52.28
2023-02-16T07:28:04.655Z,48.20
2023-02-16T07:30:53.244Z,36.60
2023-02-16T07:33:45.358Z,37.30
2023-02-16T07:36:37.399Z,39.92
2023-02-16T07:39:25.200Z,44.85
2023-02-16T07:42:14.052Z,39.28
2023-02-16T07:45:03.670Z,33.38
2023-02-16T07:47:51.274Z,42.72
2023-02-16T07:50:39.130Z,37.08
2023-02-16T07:53:27.000Z,45.58
2023-02-16T07:56:25.827Z,32.85
2023-02-16T07:59:16.826Z,40.80
2023-02-16T08:02:06.119Z,37.83
2023-02-16T08:04:54.073Z,31.58
2023-02-16T08:07:42.127Z,37.72
2023-02-16T08:10:29.949Z,39.22
2023-02-16T08:13:17.824Z,38.38
2023-02-16T08:16:10.244Z,39.90
2023-02-16T08:19:03.580Z,37.17
2023-02-16T08:24:39.244Z,40.95
2023-02-16T08:27:27.559Z,39.42
2023-02-16T08:30:18.169Z,38.97
2023-02-16T08:33:06.018Z,36.90
2023-02-16T08:35:55.341Z,39.47
2023-02-16T08:38:43.315Z,39.65
2023-02-16T08:41:34.654Z,29.35
2023-02-16T08:44:25.069Z,35.28
2023-02-16T08:47:12.727Z,37.78
2023-02-16T08:50:00.591Z,36.30
2023-02-16T08:52:52.309Z,40.25
2023-02-16T08:55:40.484Z,37.63
2023-02-16T08:58:28.588Z,34.00
2023-02-16T09:01:16.679Z,32.92
2023-02-16T09:04:04.955Z,32.60
2023-02-16T09:06:53.688Z,32.28
2023-02-16T09:09:44.480Z,36.45
2023-02-16T09:12:35.291Z,32.42
2023-02-16T09:15:25.805Z,34.83
2023-02-16T09:18:14.650Z,33.15
2023-02-16T09:21:07.616Z,35.30
2023-02-16T09:23:58.290Z,32.65
2023-02-16T09:26:48.159Z,29.63
2023-02-16T09:29:35.828Z,30.50
2023-02-16T09:32:24.327Z,29.40
2023-02-16T09:35:12.474Z,29.27
2023-02-16T09:38:00.136Z,30.98
2023-02-16T09:40:47.933Z,33.22
2023-02-16T09:43:50.565Z,28.17
2023-02-16T09:46:40.850Z,35.15
2023-02-16T09:49:37.168Z,32.20
2023-02-16T09:52:37.060Z,31.52
2023-02-16T09:55:30.603Z,29.85
2023-02-16T09:58:23.233Z,33.63
2023-02-16T10:01:29.039Z,35.38
2023-02-16T10:04:39.045Z,29.02
2023-02-16T10:07:46.800Z,32.25
2023-02-16T10:10:48.425Z,32.97
2023-02-16T10:13:47.245Z,28.50
2023-02-16T10:16:44.016Z,30.40
2023-02-16T10:19:43.156Z,26.95
2023-02-16T10:22:37.892Z,28.92
2023-02-16T10:25:36.561Z,29.70
2023-02-16T10:28:41.081Z,27.88
2023-02-16T10:31:40.278Z,24.95
2023-02-16T10:34:48.577Z,28.48
2023-02-16T10:37:59.297Z,27.58
2023-02-16T10:41:00.166Z,30.15
2023-02-16T10:43:55.703Z,27.38
2023-02-16T10:46:53.431Z,22.48
2023-02-16T10:49:41.326Z,28.85
2023-02-16T10:52:36.115Z,23.90
2023-02-16T10:55:23.803Z,28.48
2023-02-16T10:58:23.184Z,28.20
2023-02-16T11:01:17.027Z,25.05
2023-02-16T11:04:07.241Z,27.20
2023-02-16T11:07:06.041Z,24.02
2023-02-16T11:09:57.263Z,25.70
2023-02-16T11:12:45.584Z,26.75
2023-02-16T11:15:36.421Z,24.33
2023-02-16T11:18:34.898Z,25.33
2023-02-16T11:21:47.324Z,25.90
2023-02-16T11:24:38.323Z,20.33
2023-02-16T11:27:27.076Z,24.02
2023-02-16T11:30:29.443Z,26.58
2023-02-16T11:33:27.082Z,24.98
2023-02-16T11:36:27.047Z,19.50
2023-02-16T11:39:21.973Z,22.23
2023-02-16T11:42:21.892Z,21.58
2023-02-16T11:45:24.907Z,19.77
2023-02-16T11:48:28.952Z,26.02
2023-02-16T11:51:32.974Z,27.30
2023-02-16T11:54:22.300Z,22.40
2023-02-16T11:57:15.676Z,22.48
2023-02-16T12:00:18.461Z,16.48
2023-02-16T12:03:39.119Z,19.77
2023-02-16T12:06:47.145Z,20.35
2023-02-16T12:09:50.906Z,20.25
2023-02-16T12:12:54.069Z,25.58
2023-02-16T12:15:51.062Z,16.33
2023-02-16T12:18:52.275Z,18.35
2023-02-16T12:21:47.771Z,17.35
2023-02-16T12:24:54.539Z,22.88
2023-02-16T12:27:57.996Z,20.58
2023-02-16T12:31:03.788Z,19.20
2023-02-16T12:34:08.312Z,20.60
2023-02-16T12:37:10.356Z,19.90
2023-02-16T12:40:14.652Z,17.55
2023-02-16T12:46:30.573Z,22.30
2023-02-16T12:49:25.578Z,26.40
2023-02-16T12:52:33.946Z,13.63
2023-02-16T12:55:36.310Z,23.25
2023-02-16T12:58:31.033Z,12.48
2023-02-16T13:01:25.505Z,14.27
2023-02-16T13:04:25.775Z,12.23
2023-02-16T13:07:26.990Z,13.38
2023-02-16T13:10:24.740Z,16.58
2023-02-16T13:13:19.006Z,17.40
2023-02-16T13:16:29.172Z,13.30
2023-02-16T13:19:18.535Z,15.77
2023-02-16T13:22:44.507Z,12.75
2023-02-16T13:26:05.871Z,11.02
2023-02-16T13:29:24.364Z,11.63
2023-02-16T13:32:48.361Z,12.02
2023-02-16T13:36:19.077Z,10.85
2023-02-16T13:39:43.377Z,12.63
2023-02-16T13:43:27.577Z,14.50
2023-02-16T13:46:31.308Z,15.90
2023-02-16T13:49:38.665Z,13.82
2023-02-16T13:52:35.574Z,16.48
2023-02-16T13:55:34.938Z,12.68
2023-02-16T13:58:33.602Z,15.27
2023-02-16T14:01:43.047Z,14.93
2023-02-16T14:05:10.729Z,12.18
2023-02-16T14:08:27.971Z,16.85
2023-02-16T14:11:19.123Z,14.18
2023-02-16T14:14:31.204Z,15.73
2023-02-16T14:17:30.461Z,12.82
2023-02-16T14:20:35.850Z,15.95
2023-02-16T14:23:43.426Z,11.98
2023-02-16T14:26:55.624Z,16.13
2023-02-16T14:29:55.010Z,13.82
2023-02-16T14:32:54.671Z,14.75
2023-02-16T14:35:47.899Z,13.38
2023-02-16T14:38:38.468Z,14.10
2023-02-16T14:41:33.637Z,11.38
2023-02-16T14:44:54.220Z,13.20
2023-02-16T14:48:01.066Z,12.40
2023-02-16T14:51:18.947Z,13.50
2023-02-16T14:54:52.619Z,14.18
2023-02-16T14:57:51.958Z,12.07
2023-02-16T15:00:50.923Z,14.18
2023-02-16T15:03:50.248Z,12.80
2023-02-16T15:06:44.026Z,12.38
2023-02-16T15:09:35.105Z,12.82
2023-02-16T15:12:30.004Z,10.70
2023-02-16T15:15:27.599Z,11.73
2023-02-16T15:18:22.250Z,15.20
2023-02-16T15:21:20.716Z,16.85
2023-02-16T15:24:22.996Z,11.55
2023-02-16T15:27:23.803Z,12.13
2023-02-16T15:30:24.623Z,11.05
2023-02-16T15:33:33.836Z,8.85
2023-02-16T15:36:31.427Z,9.52
2023-02-16T15:39:45.233Z,7.65
2023-02-16T15:42:39.703Z,9.68
2023-02-16T15:45:35.278Z,9.35
2023-02-16T15:48:30.398Z,9.20
2023-02-16T15:51:24.918Z,8.63
2023-02-16T15:54:28.982Z,9.80
2023-02-16T15:57:31.956Z,10.50
2023-02-16T16:00:23.423Z,8.63
2023-02-16T16:03:17.906Z,9.85
2023-02-16T16:06:08.488Z,7.22
2023-02-16T16:08:56.355Z,8.15
2023-02-16T16:11:44.410Z,12.75
2023-02-16T16:14:36.661Z,9.73
2023-02-16T16:17:29.872Z,10.88
2023-02-16T16:20:30.433Z,10.35
2023-02-16T16:23:28.281Z,11.77
2023-02-16T16:26:21.631Z,13.05
2023-02-16T16:29:34.451Z,12.85
2023-02-16T16:32:25.565Z,12.00
2023-02-16T16:35:24.383Z,12.00
2023-02-16T16:38:27.100Z,11.75
2023-02-16T16:41:29.099Z,14.05
2023-02-16T16:44:35.364Z,10.25
2023-02-16T16:47:31.402Z,9.98
2023-02-16T16:50:39.515Z,11.35
2023-02-16T16:54:04.114Z,9.82
2023-02-16T16:56:51.817Z,10.30
2023-02-16T16:59:39.523Z,9.57
2023-02-16T17:02:27.074Z,9.73
2023-02-16T17:05:14.624Z,9.68
2023-02-16T17:08:03.522Z,8.45
2023-02-16T17:10:52.542Z,10.32
2023-02-16T17:13:40.381Z,8.55
2023-02-16T17:16:36.264Z,6.80
2023-02-16T17:19:24.366Z,8.20
2023-02-16T17:22:14.560Z,9.65
2023-02-16T17:25:02.204Z,7.43
2023-02-16T17:27:51.296Z,7.40
2023-02-16T17:30:39.615Z,9.57
2023-02-16T17:33:26.827Z,10.75
2023-02-16T17:36:17.130Z,7.30
2023-02-16T17:39:05.103Z,9.65
2023-02-16T17:41:53.000Z,10.05
2023-02-16T17:44:41.691Z,8.70
2023-02-16T17:47:29.296Z,9.93
2023-02-16T17:50:18.160Z,10.23
2023-02-16T17:53:10.492Z,9.65
2023-02-16T17:55:59.347Z,11.00
2023-02-16T17:58:46.817Z,9.23
2023-02-16T18:01:37.649Z,11.25
2023-02-16T18:04:25.308Z,13.10
2023-02-16T18:07:14.394Z,10.57
2023-02-16T18:10:02.054Z,14.88
2023-02-16T18:12:49.676Z,12.98
2023-02-16T18:15:37.274Z,11.50
2023-02-16T18:18:26.556Z,11.98
2023-02-16T18:21:14.687Z,11.63
2023-02-16T18:24:02.378Z,9.15
2023-02-16T18:26:51.858Z,14.75
2023-02-16T18:29:39.607Z,14.73
2023-02-16T18:32:27.184Z,13.02
2023-02-16T18:35:17.154Z,14.85
2023-02-16T18:38:05.292Z,16.40
2023-02-16T18:40:54.491Z,12.70
2023-02-16T18:43:41.876Z,13.45
2023-02-16T18:46:29.270Z,13.45
2023-02-16T18:49:16.779Z,13.80
2023-02-16T18:52:05.596Z,12.55
2023-02-16T18:54:53.685Z,15.63
2023-02-16T18:57:42.207Z,12.45
2023-02-16T19:00:30.649Z,11.15
2023-02-16T19:03:18.256Z,14.07
2023-02-16T19:06:07.000Z,11.15
2023-02-16T19:08:56.321Z,11.45
2023-02-16T19:11:43.815Z,11.93
2023-02-16T19:14:31.212Z,11.60
2023-02-16T19:17:18.806Z,10.45
2023-02-16T19:20:09.706Z,13.13
2023-02-16T19:22:57.436Z,10.57
2023-02-16T19:25:46.106Z,13.23
2023-02-16T19:28:33.876Z,12.70
2023-02-16T19:31:24.928Z,11.38
2023-02-16T19:34:13.255Z,10.73
2023-02-16T19:37:01.209Z,10.50
2023-02-16T19:39:48.821Z,12.10
2023-02-16T19:42:38.215Z,10.82
2023-02-16T19:45:25.859Z,10.13
2023-02-16T19:48:13.562Z,14.05
2023-02-16T19:51:04.639Z,16.58
2023-02-16T19:53:53.050Z,11.65
2023-02-16T19:56:41.436Z,14.50
2023-02-16T19:59:31.365Z,13.07
2023-02-16T20:02:19.250Z,9.85
2023-02-16T20:05:09.698Z,10.93
2023-02-16T20:07:57.725Z,10.32
2023-02-16T20:10:45.950Z,12.52
2023-02-16T20:13:33.394Z,12.20
2023-02-16T20:16:23.777Z,11.88
2023-02-16T20:19:12.016Z,11.15
2023-02-16T20:21:59.763Z,10.07
2023-02-16T20:24:47.108Z,15.20
2023-02-16T20:27:35.300Z,11.18
2023-02-16T20:30:25.266Z,12.50
2023-02-16T20:33:18.606Z,12.25
2023-02-16T20:36:08.152Z,11.18
2023-02-16T20:38:56.049Z,13.63
2023-02-16T20:41:43.892Z,13.63
2023-02-16T20:44:31.492Z,18.70
2023-02-16T20:47:18.976Z,13.98
2023-02-16T20:50:08.982Z,11.23
2023-02-16T20:52:56.406Z,15.65
2023-02-16T20:55:43.923Z,14.38
2023-02-16T20:58:31.998Z,12.90
2023-02-16T21:01:25.188Z,18.10
2023-02-16T21:04:14.873Z,18.67
2023-02-16T21:07:03.776Z,22.65
2023-02-16T21:09:51.050Z,16.17
2023-02-16T21:12:38.552Z,14.10
2023-02-16T21:15:26.037Z,15.30
2023-02-16T21:18:13.493Z,25.30
2023-02-16T21:21:01.301Z,18.35
2023-02-16T21:23:53.506Z,15.10
2023-02-16T21:26:41.306Z,11.27
2023-02-16T21:29:28.962Z,15.65
2023-02-16T21:32:16.271Z,23.50
2023-02-16T21:35:03.769Z,16.35
2023-02-16T21:37:51.170Z,16.55
2023-02-16T21:40:57.320Z,17.67
2023-02-16T21:43:44.810Z,22.30
2023-02-16T21:46:35.409Z,20.10
2023-02-16T21:49:21.971Z,24.88
2023-02-16T21:52:09.643Z,19.38
2023-02-16T21:55:14.827Z,16.75
2023-02-16T21:58:08.038Z,19.10
2023-02-16T22:00:56.350Z,23.95
2023-02-16T22:03:44.088Z,29.60
2023-02-16T22:06:34.547Z,27.27
2023-02-16T22:09:24.416Z,30.55
2023-02-16T22:12:12.400Z,31.90
2023-02-16T22:15:01.527Z,28.38
2023-02-16T22:17:50.050Z,29.48
2023-02-16T22:20:37.968Z,23.42
2023-02-16T22:23:25.295Z,23.08
2023-02-16T22:26:24.167Z,24.75
2023-02-16T22:29:12.992Z,20.38
2023-02-16T22:32:01.868Z,20.25
2023-02-16T22:34:49.730Z,21.98
2023-02-16T22:37:37.148Z,21.45
2023-02-16T22:40:24.638Z,20.02
2023-02-16T22:43:12.251Z,19.40
2023-02-16T22:45:59.795Z,23.50
2023-02-16T22:48:48.717Z,19.52
2023-02-16T22:51:37.395Z,20.15
2023-02-16T22:54:25.114Z,18.23
2023-02-16T22:57:12.785Z,19.70
2023-02-16T23:00:00.304Z,20.42
2023-02-16T23:02:47.828Z,18.85
2023-02-16T23:05:36.782Z,20.58
2023-02-16T23:08:25.036Z,20.13
2023-02-16T23:11:12.931Z,17.88
2023-02-16T23:14:00.752Z,19.92
2023-02-16T23:16:51.872Z,19.50
2023-02-16T23:19:40.191Z,18.92
2023-02-16T23:22:30.887Z,17.88
2023-02-16T23:25:33.730Z,20.55
2023-02-16T23:28:21.389Z,18.38
2023-02-16T23:31:09.741Z,20.23
2023-02-16T23:33:59.419Z,19.20
2023-02-16T23:36:48.635Z,18.30
2023-02-16T23:39:37.277Z,20.45
2023-02-16T23:42:24.563Z,18.52
2023-02-16T23:45:12.003Z,21.55
2023-02-16T23:47:59.429Z,17.08
2023-02-16T23:50:47.029Z,20.10
2023-02-16T23:53:35.418Z,21.10
2023-02-16T23:56:25.870Z,21.20
2023-02-16T23:59:13.221Z,17.85
